Time;durP1;ratioP1;P1;durP2;ratioP2;P2;SDS_P1;SDS_P2;PMS_P1;PMS_P2;Temp;Humidity;BMP_temperature;BMP_pressure;BME280_temperature;BME280_humidity;BME280_pressure;Samples;Min_cycle;Max_cycle;Signal;HPM_P1;HPM_P2
2022/12/28 00:01:20;;;;;;;90.13;37.20;;;;;;;1.04;100.00;100460.13;5051646;28;20025;-78
2022/12/28 00:03:46;;;;;;;68.25;32.83;;;;;;;1.08;100.00;100464.44;5051897;28;20032;-78
2022/12/28 00:06:12;;;;;;;66.53;31.45;;;;;;;1.08;100.00;100466.13;5051444;28;20044;-78
2022/12/28 00:08:39;;;;;;;63.25;30.55;;;;;;;0.97;100.00;100456.69;5055287;28;20017;-78
2022/12/28 00:11:07;;;;;;;55.30;29.38;;;;;;;0.97;100.00;100471.22;5055740;28;20021;-78
2022/12/28 00:13:34;;;;;;;67.35;31.83;;;;;;;0.82;100.00;100446.34;5055925;28;20131;-78
2022/12/28 00:16:29;;;;;;;68.00;32.75;;;;;;;0.84;100.00;100464.28;5055604;28;20021;-78
2022/12/28 00:18:57;;;;;;;86.10;39.80;;;;;;;0.75;100.00;100465.09;5056000;28;20048;-78
2022/12/28 00:21:23;;;;;;;80.20;38.50;;;;;;;0.59;100.00;100441.09;5055768;28;20035;-78
2022/12/28 00:23:53;;;;;;;100.32;44.50;;;;;;;0.55;100.00;100439.34;5055604;28;20025;-78
2022/12/28 00:26:18;;;;;;;96.45;44.47;;;;;;;0.49;100.00;100436.72;5055425;28;20406;-78
2022/12/28 00:28:44;;;;;;;85.95;41.08;;;;;;;0.44;100.00;100439.25;5072757;28;20123;-78
2022/12/28 00:31:09;;;;;;;92.90;43.60;;;;;;;0.44;100.00;100448.66;5072718;28;20124;-78
2022/12/28 00:33:34;;;;;;;88.28;41.40;;;;;;;0.37;100.00;100436.63;5073088;28;20119;-78
2022/12/28 00:36:01;;;;;;;82.43;38.58;;;;;;;0.27;100.00;100429.75;5072846;28;20025;-78
2022/12/28 00:38:28;;;;;;;73.85;38.03;;;;;;;0.26;100.00;100431.44;5072693;28;20087;-78
2022/12/28 00:40:53;;;;;;;72.32;38.50;;;;;;;0.21;100.00;100422.84;5072861;28;20032;-78
2022/12/28 00:43:19;;;;;;;102.63;49.50;;;;;;;0.22;100.00;100445.09;5072500;28;20442;-78
2022/12/28 00:45:45;;;;;;;97.20;42.78;;;;;;;0.18;100.00;100440.78;5072903;28;20036;-78
2022/12/28 00:48:11;;;;;;;75.63;36.20;;;;;;;0.14;100.00;100439.03;5072251;28;20170;-78
2022/12/28 00:50:36;;;;;;;125.40;58.25;;;;;;;0.13;100.00;100439.88;5073003;28;20039;-78
2022/12/28 00:53:02;;;;;;;78.00;37.22;;;;;;;0.09;100.00;100441.56;5072192;28;20020;-78
2022/12/28 00:55:27;;;;;;;71.53;36.60;;;;;;;-0.03;100.00;100429.50;5072471;28;20040;-78
2022/12/28 00:57:53;;;;;;;65.97;34.60;;;;;;;0.00;100.00;100436.38;5072487;28;20162;-78
2022/12/28 01:00:18;;;;;;;62.60;34.35;;;;;;;-0.11;100.00;100410.66;5059228;28;20048;-78
2022/12/28 01:02:44;;;;;;;50.92;28.77;;;;;;;-0.11;100.00;100414.91;5055401;28;20025;-78
2022/12/28 01:05:09;;;;;;;54.20;29.95;;;;;;;-0.11;100.00;100420.88;5054844;28;20448;-78
2022/12/28 01:07:34;;;;;;;51.03;28.33;;;;;;;-0.20;100.00;100414.84;5054856;28;20364;-78
2022/12/28 01:09:59;;;;;;;37.83;22.92;;;;;;;-0.15;100.00;100415.72;5054818;28;20360;-78
2022/12/28 01:12:25;;;;;;;39.55;23.05;;;;;;;-0.21;100.00;100403.75;5054824;28;20027;-78
2022/12/28 01:14:50;;;;;;;42.50;23.88;;;;;;;-0.23;100.00;100395.16;5054659;28;20056;-78
2022/12/28 01:17:15;;;;;;;35.25;20.98;;;;;;;-0.14;100.00;100402.06;5054873;28;20468;-78
2022/12/28 01:19:41;;;;;;;34.50;18.90;;;;;;;-0.20;100.00;100387.53;5053509;28;20025;-78
2022/12/28 01:22:07;;;;;;;35.38;19.50;;;;;;;-0.14;100.00;100390.13;5054462;28;20425;-78
2022/12/28 01:24:32;;;;;;;43.17;20.60;;;;;;;-0.19;100.00;100386.69;5054567;28;20028;-78
2022/12/28 01:26:57;;;;;;;48.50;23.33;;;;;;;-0.18;100.00;100375.59;5054445;28;20080;-78
2022/12/28 01:29:23;;;;;;;47.35;24.85;;;;;;;-0.21;100.00;100384.94;5054223;28;20025;-78
2022/12/28 01:31:48;;;;;;;91.15;38.53;;;;;;;-0.15;100.00;100390.97;5054665;28;20029;-78
2022/12/28 01:34:13;;;;;;;65.47;31.88;;;;;;;-0.27;100.00;100380.63;5054294;28;20029;-78
2022/12/28 01:36:39;;;;;;;66.47;31.30;;;;;;;-0.22;100.00;100396.88;5054432;28;20480;-78
2022/12/28 01:39:05;;;;;;;59.75;29.23;;;;;;;-0.24;100.00;100393.47;5054009;28;20072;-78
2022/12/28 01:41:34;;;;;;;62.47;27.55;;;;;;;-0.36;100.00;100378.84;5054127;28;20057;-78
2022/12/28 01:43:59;;;;;;;48.92;25.80;;;;;;;-0.22;100.00;100396.88;5054307;28;20024;-78
2022/12/28 01:46:47;;;;;;;61.28;30.90;;;;;;;-0.22;100.00;100389.19;5053709;28;20103;-78
2022/12/28 01:49:30;;;;;;;49.55;24.13;;;;;;;-0.14;100.00;100396.94;5053911;28;20024;-78
2022/12/28 01:52:04;;;;;;;38.47;19.95;;;;;;;-0.23;100.00;100368.72;5053964;28;20396;-78
2022/12/28 01:54:37;;;;;;;32.33;18.73;;;;;;;-0.13;100.00;100378.19;5053881;28;20082;-78
2022/12/28 01:57:03;;;;;;;26.05;15.65;;;;;;;-0.13;100.00;100378.19;5053940;28;20086;-78
2022/12/28 01:59:32;;;;;;;27.90;17.20;;;;;;;-0.21;100.00;100355.09;5053695;28;20033;-78
2022/12/28 02:01:58;;;;;;;33.25;19.60;;;;;;;-0.21;100.00;100356.78;5053810;28;20037;-78
2022/12/28 02:04:24;;;;;;;32.40;19.33;;;;;;;-0.17;100.00;100363.63;5053525;28;20023;-78
2022/12/28 02:06:51;;;;;;;30.42;19.02;;;;;;;-0.20;100.00;100363.63;5053424;28;20029;-78
2022/12/28 02:09:26;;;;;;;34.58;19.30;;;;;;;-0.25;100.00;100355.91;5053848;28;20032;-78
2022/12/28 02:11:53;;;;;;;28.70;16.23;;;;;;;-0.23;100.00;100351.66;5053667;28;20029;-78
2022/12/28 02:14:20;;;;;;;27.00;16.92;;;;;;;-0.15;100.00;100344.03;5053165;28;20462;-78
2022/12/28 02:16:45;;;;;;;26.63;15.82;;;;;;;-0.22;100.00;100330.31;5053590;28;20464;-78
2022/12/28 02:19:19;;;;;;;24.98;13.82;;;;;;;-0.18;100.00;100339.75;5053236;28;20055;-78
2022/12/28 02:22:09;;;;;;;27.15;17.20;;;;;;;-0.19;100.00;100334.63;5053751;28;20111;-78
2022/12/28 02:25:11;;;;;;;30.00;17.90;;;;;;;-0.19;100.00;100334.63;5053607;28;20033;-78
2022/12/28 02:28:12;;;;;;;24.38;14.68;;;;;;;-0.22;100.00;100334.59;5053217;28;20082;-78
2022/12/28 02:31:01;;;;;;;35.05;20.17;;;;;;;-0.33;100.00;100321.72;5051889;28;20416;-78
2022/12/28 02:33:37;;;;;;;43.70;24.08;;;;;;;-0.33;100.00;100332.81;5053027;28;20520;-78
2022/12/28 02:36:17;;;;;;;38.20;20.45;;;;;;;-0.39;100.00;100313.97;5053226;28;20056;-78
2022/12/28 02:38:54;;;;;;;40.17;20.48;;;;;;;-0.37;100.00;100308.03;5053138;28;20124;-78
2022/12/28 02:41:23;;;;;;;77.18;33.55;;;;;;;-0.31;100.00;100307.22;5053358;28;20028;-78
2022/12/28 02:43:50;;;;;;;57.42;24.20;;;;;;;-0.29;100.00;100310.66;5053129;28;20583;-78
2022/12/28 02:52:16;;;;;;;49.72;22.17;;;;;;;-0.35;100.00;100303.78;5053031;28;20032;-78
2022/12/28 02:57:43;;;;;;;39.28;19.88;;;;;;;-0.42;100.00;100296.91;5052470;28;20131;-78
2022/12/28 03:00:14;;;;;;;36.60;17.77;;;;;;;-0.44;100.00;100292.59;5052660;28;20025;-78
2022/12/28 03:02:51;;;;;;;32.08;18.27;;;;;;;-0.48;100.00;100290.88;5051406;28;20065;-78
2022/12/28 03:08:42;;;;;;;23.35;13.30;;;;;;;-0.65;100.00;100283.03;5052268;28;20506;-79
2022/12/28 03:11:16;;;;;;;28.65;17.00;;;;;;;-0.61;100.00;100290.75;5052432;28;20031;-79
2022/12/28 03:14:01;;;;;;;34.08;20.15;;;;;;;-0.67;100.00;100269.41;5052357;28;20060;-79
2022/12/28 03:25:41;;;;;;;32.03;16.98;;;;;;;-0.54;100.00;100282.31;5052401;28;20028;-78
2022/12/28 03:33:22;;;;;;;36.97;18.35;;;;;;;-0.11;100.00;100244.22;5052068;28;20064;-78
2022/12/28 03:36:00;;;;;;;24.13;15.10;;;;;;;0.07;100.00;100247.72;5052194;28;20064;-78
2022/12/28 03:38:37;;;;;;;21.13;13.20;;;;;;;0.14;100.00;100244.38;5051678;28;20067;-79
2022/12/28 03:41:11;;;;;;;21.73;14.18;;;;;;;0.16;100.00;100240.94;5052064;28;20082;-78
2022/12/28 03:43:46;;;;;;;34.20;17.95;;;;;;;0.21;100.00;100234.16;5051896;28;20028;-78
2022/12/28 03:46:17;;;;;;;43.70;20.65;;;;;;;0.35;100.00;100241.03;5051902;28;20020;-78
2022/12/28 03:48:44;;;;;;;47.70;22.35;;;;;;;0.34;100.00;100232.50;5051755;28;20021;-78
2022/12/28 03:51:13;;;;;;;34.13;17.05;;;;;;;0.40;100.00;100234.22;5052067;28;20021;-78
2022/12/28 03:53:41;;;;;;;28.60;15.98;;;;;;;0.50;100.00;100235.97;5052322;28;20037;-78
2022/12/28 03:56:12;;;;;;;24.38;14.50;;;;;;;0.53;100.00;100227.44;5051949;28;20032;-78
2022/12/28 03:58:37;;;;;;;;;;;;;;;0.63;100.00;100234.28;5052218;28;20029;-78
2022/12/28 04:01:03;;;;;;;25.05;15.57;;;;;;;0.58;100.00;100208.66;5051872;28;19958;-78
2022/12/28 04:03:28;;;;;;;20.73;13.10;;;;;;;0.62;100.00;100209.53;5051476;28;20025;-78
2022/12/28 04:05:54;;;;;;;17.85;11.18;;;;;;;0.71;100.00;100218.09;5051746;28;20107;-78
2022/12/28 04:08:19;;;;;;;14.95;11.07;;;;;;;0.76;100.00;100225.81;5051605;28;20055;-78
2022/12/28 04:10:45;;;;;;;15.98;10.07;;;;;;;0.76;100.00;100202.75;5051855;28;20104;-78
2022/12/28 04:13:10;;;;;;;17.15;11.25;;;;;;;0.82;100.00;100207.00;5052016;28;20044;-78
2022/12/28 04:15:35;;;;;;;15.73;9.73;;;;;;;0.78;100.00;100193.31;5051539;28;20431;-78
2022/12/28 04:18:01;;;;;;;14.43;9.35;;;;;;;0.78;100.00;100180.50;5051863;28;20074;-78
2022/12/28 04:20:26;;;;;;;18.95;10.13;;;;;;;0.77;100.00;100177.94;5051386;28;20025;-78
2022/12/28 04:22:51;;;;;;;17.75;11.27;;;;;;;0.83;100.00;100185.63;5051925;28;20025;-78
2022/12/28 04:25:17;;;;;;;12.35;9.25;;;;;;;0.90;100.00;100182.25;5051337;28;20031;-78
2022/12/28 04:27:43;;;;;;;17.25;12.55;;;;;;;0.91;100.00;100183.94;5051652;28;20025;-78
2022/12/28 04:30:08;;;;;;;17.33;11.98;;;;;;;0.80;100.00;100165.09;5051568;28;20051;-78
2022/12/28 04:32:34;;;;;;;18.40;11.68;;;;;;;0.92;100.00;100172.81;5051175;28;20024;-78
2022/12/28 04:35:00;;;;;;;18.50;11.50;;;;;;;0.90;100.00;100166.84;5051444;28;20025;-79
2022/12/28 04:37:25;;;;;;;17.80;12.63;;;;;;;0.82;100.00;100148.03;5051472;28;20024;-79
2022/12/28 04:39:50;;;;;;;23.35;14.05;;;;;;;0.92;100.00;100165.97;5051322;28;20099;-79
2022/12/28 04:42:15;;;;;;;17.80;12.73;;;;;;;0.84;100.00;100149.72;5051183;28;20017;-79
2022/12/28 04:44:41;;;;;;;18.95;13.05;;;;;;;0.82;100.00;100142.91;5051700;28;20174;-79
2022/12/28 04:47:06;;;;;;;16.63;11.73;;;;;;;0.84;100.00;100159.97;5051278;28;20396;-79
2022/12/28 04:49:31;;;;;;;18.50;11.90;;;;;;;0.78;100.00;100142.03;5050933;28;20368;-79
2022/12/28 04:51:57;;;;;;;22.70;13.77;;;;;;;0.80;100.00;100145.47;5051523;28;20024;-79
2022/12/28 04:54:22;;;;;;;15.63;11.45;;;;;;;0.69;100.00;100136.91;5054092;28;20032;-79
2022/12/28 04:56:47;;;;;;;17.08;12.02;;;;;;;0.65;100.00;100130.06;5055176;28;20053;-79
2022/12/28 04:59:13;;;;;;;15.85;11.65;;;;;;;0.66;100.00;100140.31;5055020;28;20515;-79
2022/12/28 05:01:38;;;;;;;16.73;11.48;;;;;;;0.55;100.00;100118.06;5054705;28;20019;-78
2022/12/28 05:04:03;;;;;;;17.02;11.57;;;;;;;0.60;100.00;100130.06;5054738;28;20116;-78
2022/12/28 05:06:29;;;;;;;16.33;11.95;;;;;;;0.56;100.00;100128.34;5054845;28;20468;-79
2022/12/28 05:08:56;;;;;;;21.73;12.10;;;;;;;0.47;100.00;100116.38;5054952;28;20016;-79
2022/12/28 05:11:23;;;;;;;20.48;12.15;;;;;;;0.48;100.00;100118.06;5054710;28;20036;-79
2022/12/28 05:13:49;;;;;;;16.67;12.23;;;;;;;0.42;100.00;100105.28;5054891;28;20071;-79
2022/12/28 05:16:18;;;;;;;16.85;12.25;;;;;;;0.44;100.00;100110.38;5054757;28;20028;-79
2022/12/28 05:18:43;;;;;;;38.38;20.98;;;;;;;0.39;100.00;100106.97;5054497;28;20024;-79
2022/12/28 05:21:12;;;;;;;72.53;42.90;;;;;;;0.42;100.00;100112.97;5054547;28;20028;-78
2022/12/28 05:23:38;;;;;;;50.70;30.83;;;;;;;0.33;100.00;100091.56;5054488;28;20087;-78
2022/12/28 05:26:05;;;;;;;37.65;21.40;;;;;;;0.33;100.00;100089.84;5054582;28;20403;-78
2022/12/28 05:28:30;;;;;;;22.90;16.30;;;;;;;0.29;100.00;100090.69;5053969;28;20025;-78
2022/12/28 05:31:01;;;;;;;21.40;14.45;;;;;;;0.26;100.00;100083.03;5054302;28;20083;-78
2022/12/28 05:33:28;;;;;;;17.17;12.75;;;;;;;0.33;100.00;100092.41;5054127;28;20029;-79
2022/12/28 05:35:54;;;;;;;16.85;11.77;;;;;;;0.23;100.00;100065.09;5054522;28;20013;-78
2022/12/28 05:38:19;;;;;;;15.38;11.35;;;;;;;0.22;100.00;100071.06;5053972;28;20047;-79
2022/12/28 05:40:44;;;;;;;17.75;10.68;;;;;;;0.26;100.00;100079.63;5054186;28;20018;-78
2022/12/28 05:43:10;;;;;;;21.40;12.10;;;;;;;0.21;100.00;100077.00;5054114;28;20029;-78
2022/12/28 05:45:36;;;;;;;20.88;13.35;;;;;;;0.17;100.00;100072.75;5053724;28;20045;-78
2022/12/28 05:48:02;;;;;;;24.33;13.70;;;;;;;0.18;100.00;100072.75;5054106;28;20086;-79
2022/12/28 05:50:27;;;;;;;20.75;14.68;;;;;;;0.23;100.00;100083.88;5053803;28;20024;-79
2022/12/28 05:52:52;;;;;;;24.60;15.80;;;;;;;0.24;100.00;100082.16;5054090;28;20021;-78
2022/12/28 05:55:18;;;;;;;19.35;13.23;;;;;;;0.18;100.00;100067.63;5053985;28;20391;-79
2022/12/28 05:57:43;;;;;;;40.67;20.33;;;;;;;0.31;100.00;100076.19;5053670;28;20396;-79
2022/12/28 06:00:09;;;;;;;51.85;22.42;;;;;;;0.30;100.00;100066.81;5053780;28;20476;-78
2022/12/28 06:02:34;;;;;;;52.60;21.75;;;;;;;0.35;100.00;100069.38;5053520;28;20029;-78
2022/12/28 06:04:59;;;;;;;48.33;20.73;;;;;;;0.38;100.00;100062.56;5053553;28;20021;-78
2022/12/28 06:07:25;;;;;;;38.15;17.88;;;;;;;0.38;100.00;100065.13;5053580;28;20024;-78
2022/12/28 06:09:50;;;;;;;26.80;15.68;;;;;;;0.38;100.00;100056.53;5053779;28;20029;-78
2022/12/28 06:12:16;;;;;;;25.13;14.35;;;;;;;0.43;100.00;100075.38;5053689;28;20150;-78
2022/12/28 06:14:41;;;;;;;24.45;13.73;;;;;;;0.47;100.00;100069.41;5053261;28;20430;-78
2022/12/28 06:17:07;;;;;;;20.02;14.05;;;;;;;0.40;100.00;100068.53;5052161;28;20024;-78
2022/12/28 06:19:32;;;;;;;25.05;14.25;;;;;;;0.48;100.00;100077.06;5053221;28;20037;-78
2022/12/28 06:21:57;;;;;;;22.20;13.95;;;;;;;0.48;100.00;100064.25;5053490;28;20150;-78
2022/12/28 06:24:23;;;;;;;17.88;12.63;;;;;;;0.50;100.00;100056.56;5051902;28;20071;-78
2022/12/28 06:26:48;;;;;;;20.38;12.00;;;;;;;0.51;100.00;100063.41;5053365;28;20382;-78
2022/12/28 06:29:14;;;;;;;20.80;12.77;;;;;;;0.47;100.00;100049.75;5053384;28;20025;-78
2022/12/28 06:31:45;;;;;;;17.90;12.52;;;;;;;0.51;100.00;100058.28;5053078;28;20021;-78
2022/12/28 06:34:11;;;;;;;18.65;13.50;;;;;;;0.56;100.00;100074.53;5053468;28;20057;-78
2022/12/28 06:36:42;;;;;;;18.02;13.02;;;;;;;0.54;100.00;100071.09;5053088;28;20059;-78
2022/12/28 06:39:09;;;;;;;22.05;14.10;;;;;;;0.56;100.00;100079.66;5053029;28;20223;-78
2022/12/28 06:41:35;;;;;;;26.08;15.48;;;;;;;0.46;100.00;100063.41;5052728;28;20174;-78
2022/12/28 06:44:04;;;;;;;34.15;16.75;;;;;;;0.55;100.00;100067.69;5052940;28;20029;-78
2022/12/28 06:46:29;;;;;;;29.52;15.30;;;;;;;0.55;100.00;100056.56;5052500;28;20049;-78
2022/12/28 06:48:56;;;;;;;20.02;12.43;;;;;;;0.52;100.00;100052.31;5052907;28;20059;-78
2022/12/28 06:51:24;;;;;;;23.25;13.57;;;;;;;0.58;100.00;100061.69;5052785;28;20178;-78
2022/12/28 06:53:51;;;;;;;23.45;12.25;;;;;;;0.60;100.00;100055.72;5052683;28;20487;-78
2022/12/28 06:56:24;;;;;;;18.90;12.38;;;;;;;0.57;100.00;100052.31;5052609;28;20104;-78
2022/12/28 06:58:50;;;;;;;24.42;12.57;;;;;;;0.58;100.00;100051.44;5053227;28;20025;-78
2022/12/28 07:01:17;;;;;;;27.83;14.50;;;;;;;0.63;100.00;100058.31;5052644;28;20074;-78
2022/12/28 07:03:45;;;;;;;34.90;16.60;;;;;;;0.57;100.00;100050.59;5052453;28;20049;-78
2022/12/28 07:06:11;;;;;;;44.05;19.17;;;;;;;0.63;100.00;100052.28;5052648;28;20025;-78
2022/12/28 07:08:37;;;;;;;45.95;18.10;;;;;;;0.64;100.00;100052.31;5052228;28;20090;-78
2022/12/28 07:11:07;;;;;;;38.40;17.80;;;;;;;0.64;100.00;100060.00;5052731;28;20025;-78
2022/12/28 07:13:34;;;;;;;30.52;16.08;;;;;;;0.62;100.00;100059.13;5052410;28;20064;-78
2022/12/28 07:16:03;;;;;;;22.48;13.43;;;;;;;0.60;100.00;100055.72;5052468;28;20059;-78
2022/12/28 07:18:29;;;;;;;21.63;15.32;;;;;;;0.55;100.00;100043.75;5051896;28;20027;-78
2022/12/28 07:21:05;;;;;;;26.42;17.73;;;;;;;0.57;100.00;100047.19;5052383;28;20100;-78
2022/12/28 07:23:31;;;;;;;21.67;17.23;;;;;;;0.53;100.00;100043.75;5048861;28;20368;-78
2022/12/28 07:26:06;;;;;;;21.23;14.15;;;;;;;0.50;100.00;100049.72;5051206;28;20373;-78
2022/12/28 07:28:32;;;;;;;21.27;14.10;;;;;;;0.47;100.00;100036.94;5051984;28;20021;-78
2022/12/28 07:30:58;;;;;;;26.95;15.25;;;;;;;0.37;100.00;100024.09;5052059;28;20071;-78
2022/12/28 07:33:23;;;;;;;30.63;17.02;;;;;;;0.42;100.00;100033.53;5052165;28;20025;-78
2022/12/28 07:35:49;;;;;;;20.25;13.32;;;;;;;0.52;100.00;100046.34;5052218;28;20059;-78
2022/12/28 07:38:14;;;;;;;17.45;12.45;;;;;;;0.45;100.00;100024.97;5051774;28;20430;-78
2022/12/28 07:40:39;;;;;;;19.63;12.02;;;;;;;0.54;100.00;100035.22;5052079;28;20338;-78
2022/12/28 07:43:05;;;;;;;19.40;12.57;;;;;;;0.57;100.00;100036.94;5050858;28;20522;-78
2022/12/28 07:45:31;;;;;;;20.90;11.85;;;;;;;0.54;100.00;100035.22;5051868;28;20032;-78
2022/12/28 07:47:56;;;;;;;18.83;12.90;;;;;;;0.62;100.00;100048.88;5051905;28;20029;-78
2022/12/28 07:50:22;;;;;;;23.65;13.52;;;;;;;0.60;100.00;100032.66;5052154;28;20021;-78
2022/12/28 07:52:47;;;;;;;17.60;11.82;;;;;;;0.69;100.00;100047.19;5051379;28;20036;-78
2022/12/28 07:55:12;;;;;;;19.60;11.88;;;;;;;0.69;100.00;100047.19;5052036;28;20024;-78
2022/12/28 07:57:38;;;;;;;16.23;10.85;;;;;;;0.69;100.00;100049.75;5051687;28;20032;-78
2022/12/28 08:00:05;;;;;;;19.10;11.85;;;;;;;0.66;100.00;100039.50;5050400;28;20025;-78
2022/12/28 08:02:31;;;;;;;15.73;11.13;;;;;;;0.76;100.00;100051.47;5051540;28;20017;-78
2022/12/28 08:04:57;;;;;;;13.48;10.95;;;;;;;0.77;100.00;100050.59;5051771;28;20032;-78
2022/12/28 08:07:22;;;;;;;18.77;11.63;;;;;;;0.82;100.00;100051.44;5051492;28;20025;-78
2022/12/28 08:09:47;;;;;;;16.20;11.30;;;;;;;0.80;100.00;100035.22;5051651;28;20028;-78
2022/12/28 08:12:13;;;;;;;17.70;11.05;;;;;;;0.87;100.00;100030.94;5051685;28;20025;-78
2022/12/28 08:14:38;;;;;;;19.77;12.80;;;;;;;0.86;100.00;100030.06;5051874;28;20068;-78
2022/12/28 08:17:03;;;;;;;24.98;14.15;;;;;;;0.86;100.00;100026.66;5051592;28;20110;-77
2022/12/28 08:19:29;;;;;;;22.05;12.18;;;;;;;0.89;100.00;100014.69;5051387;28;20017;-78
2022/12/28 08:21:54;;;;;;;17.05;10.60;;;;;;;1.00;100.00;100030.91;5051238;28;20021;-78
2022/12/28 08:24:19;;;;;;;19.58;9.73;;;;;;;0.98;100.00;100004.41;5050478;28;20029;-78
2022/12/28 08:26:46;;;;;;;24.77;9.85;;;;;;;1.09;100.00;100018.91;5051464;28;20065;-78
2022/12/28 08:29:18;;;;;;;18.98;10.70;;;;;;;1.09;100.00;100008.66;5054309;28;20021;-78
2022/12/28 08:31:44;;;;;;;18.77;10.00;;;;;;;1.17;100.00;100012.06;5043905;28;20078;-78
2022/12/28 08:34:15;;;;;;;21.65;10.65;;;;;;;1.23;100.00;100025.72;5041602;28;20057;-79
2022/12/28 08:36:41;;;;;;;16.52;9.63;;;;;;;1.28;100.00;100012.88;5040152;28;20025;-78
2022/12/28 08:39:07;;;;;;;20.50;10.48;;;;;;;1.30;100.00;100002.59;5037988;28;20451;-78
2022/12/28 08:41:33;;;;;;;19.15;9.98;;;;;;;1.41;100.00;100017.13;5033922;28;20026;-78
2022/12/28 08:43:58;;;;;;;17.67;11.45;;;;;;;1.38;100.00;99995.75;5035325;28;20025;-78
2022/12/28 08:46:26;;;;;;;23.85;11.25;;;;;;;1.53;100.00;100016.22;5035360;28;20047;-78
2022/12/28 08:48:54;;;;;;;21.90;11.65;;;;;;;1.60;100.00;100007.66;5035039;28;20034;-78
2022/12/28 08:51:34;;;;;;;14.80;9.40;;;;;;;1.67;100.00;100001.59;5035401;28;20018;-78
2022/12/28 08:54:00;;;;;;;16.30;8.77;;;;;;;1.72;100.00;99992.16;5035087;28;20049;-78
2022/12/28 08:56:29;;;;;;;16.60;9.38;;;;;;;1.78;100.00;99988.72;5035136;28;20073;-78
2022/12/28 08:58:56;;;;;;;18.70;9.88;;;;;;;1.84;100.00;99991.25;5034999;28;20051;-78
2022/12/28 09:01:24;;;;;;;14.73;9.10;;;;;;;1.89;100.00;99998.91;5035098;28;20025;-78
2022/12/28 09:03:51;;;;;;;15.73;9.52;;;;;;;1.94;100.00;99997.19;5035354;28;20455;-78
2022/12/28 09:06:25;;;;;;;12.68;8.60;;;;;;;2.00;100.00;99985.16;5035088;28;20060;-78
2022/12/28 09:08:53;;;;;;;18.02;9.50;;;;;;;2.11;100.00;99984.25;5034536;28;20449;-78
2022/12/28 09:11:19;;;;;;;11.40;7.03;;;;;;;2.25;100.00;99977.28;5034940;28;20087;-78
2022/12/28 09:13:44;;;;;;;13.43;7.25;;;;;;;2.38;100.00;99980.59;5034702;28;20445;-78
2022/12/28 09:16:15;;;;;;;12.23;6.32;;;;;;;2.38;100.00;99970.31;5034598;28;20048;-78
2022/12/28 09:18:41;;;;;;;10.82;6.13;;;;;;;2.45;100.00;99965.13;5034484;28;20437;-78
2022/12/28 09:21:14;;;;;;;14.82;7.07;;;;;;;2.52;100.00;99959.91;5034801;28;20091;-78
2022/12/28 09:23:41;;;;;;;11.55;6.32;;;;;;;2.59;100.00;99953.84;5034427;28;20076;-78
2022/12/28 09:26:08;;;;;;;13.10;6.22;;;;;;;2.66;100.00;99952.94;5034580;28;20017;-78
2022/12/28 09:28:33;;;;;;;9.90;6.25;;;;;;;2.59;100.00;99943.56;5034390;28;20380;-78
2022/12/28 09:31:02;;;;;;;14.55;6.40;;;;;;;2.63;100.00;99943.53;5034716;28;20108;-78
2022/12/28 09:36:12;;;;;;;10.85;5.45;;;;;;;2.74;100.00;99946.84;5034343;28;20029;-78
2022/12/28 09:38:37;;;;;;;13.82;6.50;;;;;;;2.81;100.00;99947.63;5033707;28;20469;-78
2022/12/28 09:41:10;;;;;;;7.82;5.15;;;;;;;2.86;100.00;99952.72;5033026;28;20057;-78
2022/12/28 09:43:40;;;;;;;21.02;7.80;;;;;;;2.91;100.00;99949.25;5033953;28;20116;-78
2022/12/28 09:46:05;;;;;;;13.57;6.43;;;;;;;2.91;100.00;99943.25;5050990;28;20108;-78
2022/12/28 09:48:31;;;;;;;10.32;6.38;;;;;;;2.93;100.00;99939.78;5051242;28;20496;-78
2022/12/28 09:50:56;;;;;;;12.55;7.53;;;;;;;2.99;100.00;99931.13;5051308;28;20033;-78
2022/12/28 09:53:35;;;;;;;16.08;6.55;;;;;;;3.04;100.00;99936.25;5051420;28;20079;-78
2022/12/28 09:56:19;;;;;;;13.68;7.93;;;;;;;3.06;100.00;99929.34;5051369;28;20103;-78
2022/12/28 09:58:44;;;;;;;16.10;7.47;;;;;;;2.97;100.00;99902.00;5051205;28;20033;-78
2022/12/28 10:01:15;;;;;;;13.05;6.72;;;;;;;3.08;100.00;99913.03;5051268;28;20110;-78
2022/12/28 10:03:43;;;;;;;13.05;6.93;;;;;;;3.06;100.00;99903.63;5051081;28;20536;-79
2022/12/28 10:06:14;;;;;;;14.63;6.85;;;;;;;3.13;100.00;99903.53;5051122;28;20041;-78
2022/12/28 10:08:43;;;;;;;20.08;9.32;;;;;;;3.20;100.00;99905.16;5050861;28;20036;-78
2022/12/28 10:11:17;;;;;;;16.67;7.78;;;;;;;3.21;100.00;99899.13;5051149;28;20044;-78
2022/12/28 10:13:43;;;;;;;21.08;9.27;;;;;;;3.20;99.58;99876.84;5050846;28;20083;-78
2022/12/28 10:16:17;;;;;;;13.75;7.47;;;;;;;3.37;99.46;99894.66;5049234;28;20083;-78
2022/12/28 10:18:43;;;;;;;29.50;15.35;;;;;;;3.42;99.50;99889.44;5032993;28;20029;-78
2022/12/28 10:21:10;;;;;;;13.65;7.10;;;;;;;3.58;99.08;99884.91;5033786;28;20096;-78
2022/12/28 10:23:37;;;;;;;15.25;6.53;;;;;;;3.63;98.04;99875.41;5033253;28;20407;-77
2022/12/28 10:26:03;;;;;;;10.18;6.75;;;;;;;3.63;97.78;99867.69;5033440;28;20024;-77
2022/12/28 10:28:46;;;;;;;13.30;6.53;;;;;;;3.80;97.48;99883.72;5031908;28;20064;-78
2022/12/28 10:31:12;;;;;;;10.20;5.75;;;;;;;3.78;97.28;99875.16;5049975;28;20439;-78
2022/12/28 10:33:39;;;;;;;10.93;5.85;;;;;;;3.78;96.98;99880.31;5053152;28;20032;-79
2022/12/28 10:36:05;;;;;;;9.15;6.07;;;;;;;3.74;97.25;99868.34;5051883;28;20017;-80
2022/12/28 10:38:33;;;;;;;10.90;5.38;;;;;;;3.83;97.00;99875.94;5052885;28;20044;-79
2022/12/28 10:41:03;;;;;;;12.23;6.03;;;;;;;3.85;96.84;99874.19;5052926;28;20090;-79
2022/12/28 10:43:35;;;;;;;10.85;6.47;;;;;;;3.85;96.24;99860.47;5051449;28;20545;-79
2022/12/28 10:46:02;;;;;;;7.93;5.35;;;;;;;3.84;95.89;99856.19;5052865;28;20028;-79
2022/12/28 10:48:32;;;;;;;11.18;6.82;;;;;;;3.80;96.17;99847.66;5052698;28;20036;-79
2022/12/28 10:51:14;;;;;;;17.53;5.57;;;;;;;3.86;95.97;99849.28;5052629;28;20074;-79
2022/12/28 10:53:47;;;;;;;9.82;5.68;;;;;;;3.79;96.37;99825.31;5051018;28;20055;-78
2022/12/28 10:56:12;;;;;;;10.57;7.90;;;;;;;3.95;96.44;99844.81;5052642;28;20043;-77
2022/12/28 10:58:39;;;;;;;13.65;8.15;;;;;;;3.97;96.26;99835.34;5052948;28;20579;-78
2022/12/28 11:01:13;;;;;;;10.43;6.55;;;;;;;4.05;96.38;99827.50;5052492;28;20021;-77
2022/12/28 11:03:45;;;;;;;11.93;6.32;;;;;;;4.10;96.14;99820.53;5052361;28;20108;-78
2022/12/28 11:06:17;;;;;;;12.57;7.18;;;;;;;3.99;95.54;99814.69;5052369;28;20060;-77
2022/12/28 11:08:47;;;;;;;12.85;7.95;;;;;;;4.00;96.51;99817.25;5051553;28;20175;-78
2022/12/28 11:11:21;;;;;;;8.38;5.82;;;;;;;4.14;96.61;99803.28;5052093;28;20025;-78
2022/12/28 11:14:10;;;;;;;11.73;7.97;;;;;;;4.17;96.18;99793.78;5051812;28;20017;-78
2022/12/28 11:16:37;;;;;;;17.80;8.88;;;;;;;4.23;96.16;99798.78;5051920;28;20044;-78
2022/12/28 11:19:03;;;;;;;16.95;9.20;;;;;;;4.36;96.10;99789.09;5051966;28;20424;-78
2022/12/28 11:21:29;;;;;;;13.63;7.78;;;;;;;4.38;95.18;99779.63;5051836;28;20028;-78
2022/12/28 11:23:55;;;;;;;12.88;6.78;;;;;;;4.39;95.08;99780.47;5051627;28;20051;-79
2022/12/28 11:26:21;;;;;;;12.13;8.18;;;;;;;4.50;95.20;99775.94;5052004;28;20021;-79
2022/12/28 11:28:50;;;;;;;12.40;7.00;;;;;;;4.42;94.38;99747.72;5051682;28;20043;-79
2022/12/28 11:31:57;;;;;;;17.13;11.27;;;;;;;4.48;94.72;99762.22;5051832;28;20021;-79
2022/12/28 11:34:26;;;;;;;11.70;6.90;;;;;;;4.62;94.91;99765.38;5009565;28;20056;-79
2022/12/28 11:36:52;;;;;;;10.13;7.30;;;;;;;4.65;94.35;99738.69;5009586;28;20034;-78
2022/12/28 11:39:26;;;;;;;10.85;6.32;;;;;;;4.71;93.88;99743.69;5008271;28;20092;-78
2022/12/28 11:41:59;;;;;;;16.13;9.80;;;;;;;4.71;94.35;99741.94;4992258;28;20347;-78
2022/12/28 11:44:33;;;;;;;10.98;7.22;;;;;;;4.86;93.78;99747.69;4992308;28;20041;-78
2022/12/28 11:47:03;;;;;;;11.13;7.72;;;;;;;4.77;93.65;99728.09;4994189;28;20053;-78
2022/12/28 11:49:31;;;;;;;10.40;7.97;;;;;;;4.79;94.09;99721.16;4994355;28;20121;-80